createdAt,value
2023-01-02T00:01:16.886Z,10.74
2023-01-02T00:03:44.927Z,10.83
2023-01-02T00:06:13.030Z,10.99
2023-01-02T00:08:42.316Z,10.82
2023-01-02T00:11:10.255Z,10.80
2023-01-02T00:13:38.243Z,10.81
2023-01-02T00:16:07.149Z,10.50
2023-01-02T00:18:35.035Z,10.80
2023-01-02T00:21:04.901Z,10.81
2023-01-02T00:23:32.988Z,10.88
2023-01-02T00:26:02.322Z,10.87
2023-01-02T00:28:30.684Z,10.93
2023-01-02T00:30:59.542Z,10.89
2023-01-02T00:33:46.148Z,10.89
2023-01-02T00:36:14.448Z,10.99
2023-01-02T00:38:44.424Z,10.92
2023-01-02T00:41:13.727Z,10.90
2023-01-02T00:43:43.462Z,10.90
2023-01-02T00:46:12.366Z,10.95
2023-01-02T00:48:40.952Z,10.77
2023-01-02T00:51:09.555Z,10.99
2023-01-02T00:53:37.730Z,10.89
2023-01-02T00:56:06.104Z,10.98
2023-01-02T00:58:35.690Z,10.94
2023-01-02T01:01:03.742Z,10.87
2023-01-02T01:03:32.022Z,11.03
2023-01-02T01:05:59.889Z,10.98
2023-01-02T01:08:27.786Z,11.18
2023-01-02T01:10:55.723Z,11.36
2023-01-02T01:13:23.617Z,11.27
2023-01-02T01:15:52.933Z,11.37
2023-01-02T01:18:20.907Z,11.50
2023-01-02T01:20:48.767Z,11.57
2023-01-02T01:23:16.668Z,11.67
2023-01-02T01:25:44.586Z,11.79
2023-01-02T01:28:12.498Z,11.72
2023-01-02T01:30:40.384Z,11.60
2023-01-02T01:33:09.629Z,11.67
2023-01-02T01:35:37.519Z,11.76
2023-01-02T01:38:05.524Z,11.79
2023-01-02T01:40:38.790Z,11.89
2023-01-02T01:43:13.551Z,11.92
2023-01-02T01:45:44.322Z,11.89
2023-01-02T01:48:18.214Z,11.61
2023-01-02T01:50:46.612Z,11.95
2023-01-02T01:53:19.897Z,11.89
2023-01-02T01:55:52.187Z,11.87
2023-01-02T01:58:22.610Z,11.95
2023-01-02T02:00:50.639Z,12.01
2023-01-02T02:03:23.054Z,11.95
2023-01-02T02:05:51.656Z,12.06
2023-01-02T02:08:24.736Z,12.07
2023-01-02T02:10:54.070Z,12.17
2023-01-02T02:13:22.151Z,12.12
2023-01-02T02:16:04.350Z,12.23
2023-01-02T02:18:50.508Z,12.13
2023-01-02T02:21:32.120Z,12.12
2023-01-02T02:24:29.961Z,12.06
2023-01-02T02:27:19.366Z,12.16
2023-01-02T02:30:09.231Z,12.21
2023-01-02T02:33:04.674Z,12.11
2023-01-02T02:35:43.903Z,12.23
2023-01-02T02:38:22.675Z,12.29
2023-01-02T02:41:01.141Z,12.29
2023-01-02T02:43:37.380Z,12.30
2023-01-02T02:46:13.360Z,12.33
2023-01-02T02:48:53.938Z,12.39
2023-01-02T02:51:29.906Z,12.44
2023-01-02T02:54:04.609Z,12.52
2023-01-02T02:56:33.143Z,12.59
2023-01-02T02:59:01.493Z,12.52
2023-01-02T03:01:31.560Z,12.34
2023-01-02T03:03:59.633Z,12.49
2023-01-02T03:06:46.582Z,12.51
2023-01-02T03:09:20.297Z,12.54
2023-01-02T03:11:56.217Z,12.50
2023-01-02T03:14:34.119Z,12.24
2023-01-02T03:17:11.345Z,12.46
2023-01-02T03:19:44.675Z,12.51
2023-01-02T03:22:16.144Z,12.50
2023-01-02T03:24:48.778Z,12.48
2023-01-02T03:27:21.641Z,12.53
2023-01-02T03:29:54.346Z,12.56
2023-01-02T03:32:28.778Z,12.59
2023-01-02T03:34:57.266Z,12.56
2023-01-02T03:37:29.146Z,12.54
2023-01-02T03:40:01.030Z,12.47
2023-01-02T03:42:31.150Z,12.34
2023-01-02T03:45:05.305Z,12.40
2023-01-02T03:47:39.923Z,12.30
2023-01-02T03:50:11.841Z,12.21
2023-01-02T03:52:39.741Z,12.19
2023-01-02T03:55:08.885Z,12.11
2023-01-02T03:57:52.173Z,12.05
2023-01-02T04:00:24.303Z,12.14
2023-01-02T04:02:58.325Z,11.98
2023-01-02T04:05:32.646Z,11.86
2023-01-02T04:08:05.321Z,11.86
2023-01-02T04:10:36.321Z,11.92
2023-01-02T04:13:09.998Z,11.80
2023-01-02T04:15:39.660Z,11.97
2023-01-02T04:18:12.806Z,12.00
2023-01-02T04:20:44.924Z,12.09
2023-01-02T04:23:17.931Z,11.99
2023-01-02T04:25:49.625Z,11.92
2023-01-02T04:28:23.787Z,11.94
2023-01-02T04:30:58.707Z,11.88
2023-01-02T04:33:31.294Z,11.87
2023-01-02T04:35:59.235Z,11.94
2023-01-02T04:38:27.150Z,12.06
2023-01-02T04:40:55.070Z,12.10
2023-01-02T04:43:24.328Z,12.01
2023-01-02T04:45:52.273Z,12.06
2023-01-02T04:48:20.228Z,12.13
2023-01-02T04:50:49.798Z,12.15
2023-01-02T04:53:17.703Z,12.19
2023-01-02T04:55:45.550Z,12.13
2023-01-02T04:58:13.670Z,12.16
2023-01-02T05:00:41.656Z,12.21
2023-01-02T05:03:09.554Z,12.05
2023-01-02T05:05:37.498Z,12.13
2023-01-02T05:08:12.077Z,12.27
2023-01-02T05:10:43.680Z,12.24
2023-01-02T05:13:11.578Z,12.35
2023-01-02T05:15:39.607Z,12.15
2023-01-02T05:18:07.481Z,12.20
2023-01-02T05:20:36.167Z,12.20
2023-01-02T05:23:21.596Z,12.22
2023-01-02T05:25:50.813Z,12.19
2023-01-02T05:28:18.702Z,12.22
2023-01-02T05:30:46.616Z,12.23
2023-01-02T05:33:14.506Z,12.23
2023-01-02T05:35:42.411Z,12.09
2023-01-02T05:38:10.291Z,12.02
2023-01-02T05:40:38.225Z,12.13
2023-01-02T05:43:07.471Z,11.99
2023-01-02T05:45:35.342Z,12.01
2023-01-02T05:48:03.232Z,12.04
2023-01-02T05:50:31.117Z,11.91
2023-01-02T05:52:59.074Z,12.18
2023-01-02T05:55:26.969Z,12.02
2023-01-02T05:57:56.064Z,12.19
2023-01-02T06:00:25.342Z,12.30
2023-01-02T06:02:54.282Z,12.25
2023-01-02T06:05:22.275Z,12.21
2023-01-02T06:07:50.204Z,12.31
2023-01-02T06:10:18.124Z,11.94
2023-01-02T06:12:46.049Z,12.25
2023-01-02T06:15:13.946Z,12.28
2023-01-02T06:17:43.149Z,12.12
2023-01-02T06:20:11.592Z,12.04
2023-01-02T06:22:39.434Z,12.05
2023-01-02T06:25:08.237Z,12.11
2023-01-02T06:27:36.182Z,12.27
2023-01-02T06:30:04.361Z,12.36
2023-01-02T06:32:32.393Z,12.28
2023-01-02T06:35:01.573Z,12.23
2023-01-02T06:37:29.511Z,12.27
2023-01-02T06:39:57.498Z,12.34
2023-01-02T06:42:25.423Z,12.19
2023-01-02T06:44:53.318Z,12.30
2023-01-02T06:47:21.244Z,12.48
2023-01-02T06:49:49.063Z,12.43
2023-01-02T06:52:18.320Z,12.16
2023-01-02T06:54:46.188Z,12.69
2023-01-02T06:57:14.080Z,12.68
2023-01-02T06:59:42.710Z,12.92
2023-01-02T07:02:12.532Z,12.47
2023-01-02T07:04:40.925Z,12.75
2023-01-02T07:07:08.974Z,12.70
2023-01-02T07:09:38.416Z,12.76
2023-01-02T07:12:06.776Z,12.83
2023-01-02T07:14:34.653Z,12.85
2023-01-02T07:17:02.630Z,12.90
2023-01-02T07:19:30.619Z,12.89
2023-01-02T07:21:58.429Z,12.92
2023-01-02T07:24:26.329Z,12.94
2023-01-02T07:26:55.644Z,13.01
2023-01-02T07:29:23.519Z,13.04
2023-01-02T07:31:51.463Z,13.00
2023-01-02T07:34:19.342Z,13.02
2023-01-02T07:36:47.285Z,12.93
2023-01-02T07:39:15.196Z,12.95
2023-01-02T07:41:43.529Z,13.05
2023-01-02T07:44:17.396Z,13.02
2023-01-02T07:46:45.602Z,13.07
2023-01-02T07:49:13.847Z,12.98
2023-01-02T07:51:41.810Z,13.01
2023-01-02T07:54:09.848Z,12.94
2023-01-02T07:56:37.974Z,12.87
2023-01-02T07:59:06.222Z,12.82
2023-01-02T08:01:35.746Z,12.81
2023-01-02T08:04:04.150Z,12.82
2023-01-02T08:06:32.146Z,12.82
2023-01-02T08:09:00.103Z,12.81
2023-01-02T08:11:28.158Z,12.81
2023-01-02T08:13:56.110Z,12.87
2023-01-02T08:16:24.229Z,12.88
2023-01-02T08:18:55.919Z,12.87
2023-01-02T08:21:24.313Z,12.79
2023-01-02T08:23:52.483Z,12.81
2023-01-02T08:26:21.520Z,12.92
2023-01-02T08:28:49.757Z,13.02
2023-01-02T08:31:20.620Z,13.00
2023-01-02T08:33:49.802Z,13.01
2023-01-02T08:36:21.252Z,13.04
2023-01-02T08:38:49.266Z,13.11
2023-01-02T08:41:31.524Z,13.19
2023-01-02T08:43:59.824Z,13.23
2023-01-02T08:46:27.918Z,13.25
2023-01-02T08:48:55.978Z,13.10
2023-01-02T08:51:25.438Z,13.25
2023-01-02T08:53:53.602Z,13.32
2023-01-02T08:56:23.731Z,13.30
2023-01-02T08:58:53.375Z,13.33
2023-01-02T09:01:22.724Z,13.32
2023-01-02T09:03:50.950Z,13.41
2023-01-02T09:06:21.950Z,13.45
2023-01-02T09:08:53.301Z,13.52
2023-01-02T09:11:26.738Z,13.48
2023-01-02T09:13:54.666Z,13.46
2023-01-02T09:16:23.552Z,13.46
2023-01-02T09:18:52.045Z,13.49
2023-01-02T09:21:20.149Z,13.57
2023-01-02T09:23:48.159Z,13.69
2023-01-02T09:26:17.955Z,13.71
2023-01-02T09:28:46.179Z,13.73
2023-01-02T09:31:16.465Z,13.73
2023-01-02T09:33:46.624Z,13.75
2023-01-02T09:36:15.993Z,13.87
2023-01-02T09:38:44.204Z,13.85
2023-01-02T09:41:28.223Z,13.89
2023-01-02T09:44:01.044Z,13.85
2023-01-02T09:46:36.961Z,13.87
2023-01-02T09:49:05.558Z,13.95
2023-01-02T09:51:35.563Z,13.95
2023-01-02T09:54:05.783Z,13.97
2023-01-02T09:56:41.248Z,14.13
2023-01-02T09:59:18.056Z,14.14
2023-01-02T10:01:58.578Z,14.17
2023-01-02T10:04:40.522Z,14.15
2023-01-02T10:07:12.581Z,14.09
2023-01-02T10:09:48.492Z,14.07
2023-01-02T10:12:26.067Z,13.99
2023-01-02T10:14:58.318Z,13.94
2023-01-02T10:17:28.808Z,13.87
2023-01-02T10:20:02.646Z,13.77
2023-01-02T10:22:37.048Z,13.64
2023-01-02T10:25:12.618Z,13.54
2023-01-02T10:27:48.884Z,13.41
2023-01-02T10:30:21.566Z,13.30
2023-01-02T10:32:56.805Z,13.19
2023-01-02T10:35:36.087Z,13.01
2023-01-02T10:38:07.382Z,12.97
2023-01-02T10:40:45.485Z,12.96
2023-01-02T10:43:15.716Z,12.95
2023-01-02T10:45:44.153Z,12.92
2023-01-02T10:48:12.885Z,12.95
2023-01-02T10:50:45.270Z,12.86
2023-01-02T10:53:22.953Z,12.99
2023-01-02T10:55:51.216Z,13.07
2023-01-02T10:58:26.490Z,13.13
2023-01-02T11:01:06.107Z,13.19
2023-01-02T11:03:34.328Z,13.27
2023-01-02T11:06:26.673Z,13.30
2023-01-02T11:08:57.872Z,13.31
2023-01-02T11:11:27.086Z,13.28
2023-01-02T11:14:05.812Z,13.20
2023-01-02T11:16:38.998Z,13.18
2023-01-02T11:19:07.608Z,13.16
2023-01-02T11:21:41.078Z,13.15
2023-01-02T11:24:16.229Z,13.11
2023-01-02T11:26:46.080Z,12.97
2023-01-02T11:29:28.844Z,12.92
2023-01-02T11:32:00.692Z,12.58
2023-01-02T11:34:34.918Z,12.52
2023-01-02T11:37:06.144Z,12.04
2023-01-02T11:39:36.018Z,11.84
2023-01-02T11:42:34.018Z,11.79
2023-01-02T11:45:08.328Z,11.79
2023-01-02T11:47:40.474Z,11.82
2023-01-02T11:50:14.481Z,11.72
2023-01-02T11:52:49.164Z,11.82
2023-01-02T11:55:33.017Z,11.83
2023-01-02T11:58:07.931Z,11.71
2023-01-02T12:00:41.204Z,11.54
2023-01-02T12:03:18.888Z,11.42
2023-01-02T12:06:03.439Z,11.42
2023-01-02T12:08:47.556Z,11.49
2023-01-02T12:11:29.754Z,11.50
2023-01-02T12:14:11.598Z,11.52
2023-01-02T12:16:48.883Z,11.51
2023-01-02T12:19:31.839Z,11.46
2023-01-02T12:22:14.132Z,11.44
2023-01-02T12:24:55.128Z,11.44
2023-01-02T12:27:31.601Z,11.42
2023-01-02T12:30:10.270Z,11.37
2023-01-02T12:33:21.763Z,11.34
2023-01-02T12:36:13.054Z,11.09
2023-01-02T12:39:01.848Z,11.12
2023-01-02T12:41:35.379Z,11.04
2023-01-02T12:44:40.134Z,11.02
2023-01-02T12:47:26.793Z,10.99
2023-01-02T12:50:12.759Z,10.99
2023-01-02T12:52:54.180Z,11.06
2023-01-02T12:55:33.421Z,11.19
2023-01-02T12:58:07.173Z,11.09
2023-01-02T13:01:11.126Z,11.05
2023-01-02T13:03:51.817Z,11.02
2023-01-02T13:06:44.524Z,10.91
2023-01-02T13:09:22.695Z,10.92
2023-01-02T13:11:59.412Z,10.88
2023-01-02T13:14:35.450Z,10.91
2023-01-02T13:17:20.720Z,10.87
2023-01-02T13:19:56.115Z,10.78
2023-01-02T13:22:35.864Z,10.74
2023-01-02T13:25:05.092Z,10.72
2023-01-02T13:27:34.292Z,10.73
2023-01-02T13:30:02.993Z,10.68
2023-01-02T13:32:32.111Z,10.63
2023-01-02T13:35:02.630Z,10.57
2023-01-02T13:37:32.348Z,10.48
2023-01-02T13:40:03.559Z,10.55
2023-01-02T13:42:51.300Z,10.41
2023-01-02T13:45:24.611Z,9.93
2023-01-02T13:47:56.090Z,10.29
2023-01-02T13:50:27.697Z,10.22
2023-01-02T13:53:03.952Z,10.25
2023-01-02T13:55:33.769Z,10.15
2023-01-02T13:58:41.501Z,10.12
2023-01-02T14:01:40.204Z,10.07
2023-01-02T14:04:37.736Z,10.06
2023-01-02T14:07:45.768Z,9.96
2023-01-02T14:10:45.499Z,9.85
2023-01-02T14:13:29.633Z,9.72
2023-01-02T14:16:21.459Z,9.60
2023-01-02T14:19:03.445Z,9.48
2023-01-02T14:21:35.944Z,9.38
2023-01-02T14:24:17.995Z,9.19
2023-01-02T14:26:53.403Z,8.99
2023-01-02T14:29:22.649Z,9.18
2023-01-02T14:31:58.439Z,9.17
2023-01-02T14:34:27.109Z,9.09
2023-01-02T14:36:57.758Z,9.09
2023-01-02T14:39:28.518Z,8.94
2023-01-02T14:42:52.059Z,8.98
2023-01-02T14:45:23.816Z,9.02
2023-01-02T14:47:55.843Z,9.02
2023-01-02T14:50:29.206Z,8.97
2023-01-02T14:53:04.732Z,8.83
2023-01-02T14:55:41.640Z,8.97
2023-01-02T14:58:19.292Z,8.94
2023-01-02T15:00:49.772Z,8.94
2023-01-02T15:03:29.362Z,8.64
2023-01-02T15:06:00.733Z,8.97
2023-01-02T15:08:37.440Z,8.97
2023-01-02T15:11:34.755Z,8.97
2023-01-02T15:14:03.941Z,8.98
2023-01-02T15:16:41.745Z,8.99
2023-01-02T15:19:19.990Z,9.00
2023-01-02T15:21:49.309Z,8.93
2023-01-02T15:24:21.752Z,8.98
2023-01-02T15:26:49.880Z,8.96
2023-01-02T15:29:24.014Z,8.95
2023-01-02T15:31:54.777Z,8.97
2023-01-02T15:34:30.487Z,8.96
2023-01-02T15:37:01.982Z,8.92
2023-01-02T15:39:39.117Z,8.87
2023-01-02T15:42:28.982Z,8.89
2023-01-02T15:45:12.373Z,8.93
2023-01-02T15:47:46.582Z,8.91
2023-01-02T15:50:19.218Z,8.92
2023-01-02T15:52:51.000Z,8.91
2023-01-02T15:55:21.162Z,8.63
2023-01-02T15:57:53.318Z,8.91
2023-01-02T16:00:36.473Z,8.90
2023-01-02T16:03:06.001Z,8.89
2023-01-02T16:05:50.073Z,8.93
2023-01-02T16:08:20.792Z,8.94
2023-01-02T16:10:51.505Z,8.95
2023-01-02T16:13:41.431Z,8.95
2023-01-02T16:16:15.482Z,8.88
2023-01-02T16:18:49.184Z,8.87
2023-01-02T16:21:18.131Z,8.78
2023-01-02T16:23:53.381Z,8.73
2023-01-02T16:26:24.607Z,8.77
2023-01-02T16:28:52.652Z,8.71
2023-01-02T16:31:25.391Z,8.75
2023-01-02T16:34:13.583Z,8.71
2023-01-02T16:36:41.767Z,8.71
2023-01-02T16:39:41.320Z,8.65
2023-01-02T16:42:38.053Z,8.62
2023-01-02T16:45:07.570Z,8.63
2023-01-02T16:47:40.949Z,8.51
2023-01-02T16:50:18.039Z,8.66
2023-01-02T16:52:46.677Z,8.73
2023-01-02T16:55:17.173Z,8.65
2023-01-02T16:57:45.216Z,8.61
2023-01-02T17:00:17.551Z,8.55
2023-01-02T17:02:46.283Z,8.39
2023-01-02T17:05:21.568Z,8.63
2023-01-02T17:07:49.541Z,8.62
2023-01-02T17:10:17.621Z,8.58
2023-01-02T17:12:45.611Z,8.46
2023-01-02T17:15:14.989Z,8.52
2023-01-02T17:17:43.843Z,8.51
2023-01-02T17:20:13.295Z,8.17
2023-01-02T17:22:42.663Z,8.53
2023-01-02T17:25:14.510Z,8.57
2023-01-02T17:27:44.118Z,8.47
2023-01-02T17:30:14.279Z,8.56
2023-01-02T17:32:43.107Z,8.52
2023-01-02T17:35:12.433Z,8.19
2023-01-02T17:37:42.009Z,8.54
2023-01-02T17:40:12.490Z,8.43
2023-01-02T17:42:41.777Z,8.61
2023-01-02T17:45:10.836Z,8.62
2023-01-02T17:48:00.035Z,8.54
2023-01-02T17:50:26.850Z,8.49
2023-01-02T17:52:56.134Z,8.55
2023-01-02T17:55:24.120Z,8.53
2023-01-02T17:57:52.151Z,8.44
2023-01-02T18:00:26.072Z,8.40
2023-01-02T18:02:54.317Z,8.42
2023-01-02T18:05:23.078Z,8.37
2023-01-02T18:07:51.112Z,8.37
2023-01-02T18:10:21.752Z,8.40
2023-01-02T18:12:51.058Z,8.04
2023-01-02T18:15:22.003Z,8.29
2023-01-02T18:17:50.675Z,8.34
2023-01-02T18:20:21.213Z,8.33
2023-01-02T18:22:50.749Z,8.33
2023-01-02T18:25:24.433Z,8.39
2023-01-02T18:27:53.863Z,8.43
2023-01-02T18:30:24.962Z,8.46
2023-01-02T18:33:01.642Z,8.43
2023-01-02T18:35:57.353Z,8.53
2023-01-02T18:38:28.469Z,8.39
2023-01-02T18:40:58.299Z,8.35
2023-01-02T18:43:32.593Z,8.43
2023-01-02T18:46:06.954Z,8.41
2023-01-02T18:48:35.049Z,8.45
2023-01-02T18:51:03.657Z,8.48
2023-01-02T18:53:36.126Z,8.46
2023-01-02T18:56:13.861Z,8.51
2023-01-02T18:58:43.865Z,8.55
2023-01-02T19:01:26.671Z,8.57
2023-01-02T19:04:22.393Z,8.55
2023-01-02T19:06:53.653Z,8.57
2023-01-02T19:09:25.980Z,8.57
2023-01-02T19:12:17.352Z,8.58
2023-01-02T19:14:45.756Z,8.56
2023-01-02T19:17:22.653Z,8.54
2023-01-02T19:19:51.034Z,8.60
2023-01-02T19:22:20.456Z,8.56
2023-01-02T19:24:48.667Z,8.18
2023-01-02T19:27:30.504Z,8.61
2023-01-02T19:29:58.450Z,8.64
2023-01-02T19:32:28.784Z,8.49
2023-01-02T19:34:58.537Z,8.59
2023-01-02T19:37:39.199Z,8.60
2023-01-02T19:40:18.933Z,8.59
2023-01-02T19:42:49.729Z,8.55
2023-01-02T19:45:19.991Z,8.50
2023-01-02T19:47:49.282Z,8.54
2023-01-02T19:50:19.702Z,8.18
2023-01-02T19:52:47.799Z,8.52
2023-01-02T19:55:17.801Z,8.47
2023-01-02T19:57:46.498Z,8.54
2023-01-02T20:00:19.256Z,8.51
2023-01-02T20:02:49.635Z,8.48
2023-01-02T20:05:21.804Z,8.46
2023-01-02T20:07:51.647Z,8.41
2023-01-02T20:10:20.202Z,8.38
2023-01-02T20:12:48.108Z,8.40
2023-01-02T20:15:19.721Z,8.37
2023-01-02T20:17:47.953Z,8.31
2023-01-02T20:20:17.839Z,8.21
2023-01-02T20:22:46.741Z,7.89
2023-01-02T20:25:17.354Z,8.03
2023-01-02T20:27:45.394Z,7.97
2023-01-02T20:30:18.774Z,7.97
2023-01-02T20:32:51.449Z,7.90
2023-01-02T20:35:19.438Z,7.87
2023-01-02T20:37:47.606Z,7.85
2023-01-02T20:40:15.729Z,7.85
2023-01-02T20:42:43.739Z,7.84
2023-01-02T20:45:12.937Z,7.84
2023-01-02T20:47:40.953Z,7.83
2023-01-02T20:50:10.953Z,7.84
2023-01-02T20:52:39.682Z,7.81
2023-01-02T20:55:08.539Z,7.92
2023-01-02T20:57:36.489Z,7.89
2023-01-02T21:00:09.446Z,7.84
2023-01-02T21:02:37.704Z,7.79
2023-01-02T21:05:06.358Z,7.86
2023-01-02T21:07:35.763Z,7.75
2023-01-02T21:10:03.776Z,7.68
2023-01-02T21:12:49.138Z,7.67
2023-01-02T21:15:31.014Z,7.49
2023-01-02T21:18:01.930Z,7.43
2023-01-02T21:20:29.940Z,7.34
2023-01-02T21:22:59.278Z,7.29
2023-01-02T21:25:27.631Z,7.25
2023-01-02T21:27:55.741Z,7.15
2023-01-02T21:30:23.703Z,7.12
2023-01-02T21:32:51.630Z,7.12
2023-01-02T21:35:19.655Z,7.10
2023-01-02T21:37:47.723Z,7.03
2023-01-02T21:40:17.187Z,6.97
2023-01-02T21:42:45.292Z,6.86
2023-01-02T21:45:13.612Z,6.97
2023-01-02T21:47:41.533Z,6.86
2023-01-02T21:50:10.566Z,6.79
2023-01-02T21:52:38.457Z,6.80
2023-01-02T21:55:07.798Z,6.72
2023-01-02T21:58:11.657Z,6.74
2023-01-02T22:00:27.822Z,6.60
2023-01-02T22:02:56.261Z,6.53
2023-01-02T22:05:24.273Z,6.47
2023-01-02T22:07:52.216Z,6.50
2023-01-02T22:10:20.309Z,6.43
2023-01-02T22:12:49.558Z,6.63
2023-01-02T22:15:17.511Z,6.55
2023-01-02T22:17:45.405Z,6.28
2023-01-02T22:20:13.571Z,6.52
2023-01-02T22:22:41.540Z,6.62
2023-01-02T22:25:10.669Z,6.72
2023-01-02T22:27:39.012Z,6.61
2023-01-02T22:30:33.454Z,6.48
2023-01-02T22:32:58.180Z,6.21
2023-01-02T22:35:26.135Z,6.29
2023-01-02T22:37:54.093Z,6.16
2023-01-02T22:40:22.163Z,6.24
2023-01-02T22:43:05.314Z,6.34
2023-01-02T22:45:40.793Z,6.11
2023-01-02T22:48:18.482Z,6.07
2023-01-02T22:50:48.059Z,6.16
2023-01-02T22:53:23.273Z,6.11
2023-01-02T22:55:51.303Z,6.16
2023-01-02T22:58:20.080Z,6.23
2023-01-02T23:00:56.616Z,6.38
2023-01-02T23:03:24.620Z,6.38
2023-01-02T23:05:52.542Z,6.29
2023-01-02T23:08:20.930Z,6.33
2023-01-02T23:10:48.955Z,6.31
2023-01-02T23:13:16.865Z,6.24
2023-01-02T23:15:58.835Z,6.21
2023-01-02T23:18:45.350Z,6.03
2023-01-02T23:21:13.267Z,5.95
2023-01-02T23:23:41.496Z,5.97
2023-01-02T23:26:09.717Z,5.88
2023-01-02T23:29:06.143Z,5.86
2023-01-02T23:31:25.874Z,5.82
2023-01-02T23:33:55.220Z,5.80
2023-01-02T23:36:23.156Z,5.77
2023-01-02T23:38:51.074Z,5.68
2023-01-02T23:41:19.001Z,5.58
2023-01-02T23:43:46.879Z,5.62
2023-01-02T23:46:14.882Z,5.61
2023-01-02T23:48:42.787Z,5.60
2023-01-02T23:51:12.164Z,5.00
2023-01-02T23:53:40.129Z,5.54
2023-01-02T23:56:17.971Z,5.45
2023-01-02T23:58:46.274Z,5.34
